sensor_id;sensor_type;location;lat;lon;timestamp;P1;durP1;ratioP1;P2;durP2;ratioP2
68229;SDS011;55048;52.220;5.160;2022-12-07T00:00:55;15.20;;;4.18;;
68229;SDS011;55048;52.220;5.160;2022-12-07T00:03:29;15.50;;;4.60;;
68229;SDS011;55048;52.220;5.160;2022-12-07T00:05:57;12.52;;;4.60;;
68229;SDS011;55048;52.220;5.160;2022-12-07T00:08:23;17.25;;;4.45;;
68229;SDS011;55048;52.220;5.160;2022-12-07T00:10:48;14.70;;;5.22;;
68229;SDS011;55048;52.220;5.160;2022-12-07T00:13:13;10.30;;;4.30;;
68229;SDS011;55048;52.220;5.160;2022-12-07T00:15:39;15.73;;;5.40;;
68229;SDS011;55048;52.220;5.160;2022-12-07T00:18:04;13.07;;;4.93;;
68229;SDS011;55048;52.220;5.160;2022-12-07T00:20:29;16.80;;;4.93;;
68229;SDS011;55048;52.220;5.160;2022-12-07T00:22:56;15.77;;;4.60;;
68229;SDS011;55048;52.220;5.160;2022-12-07T00:25:21;9.45;;;4.03;;
68229;SDS011;55048;52.220;5.160;2022-12-07T00:27:47;5.60;;;3.03;;
68229;SDS011;55048;52.220;5.160;2022-12-07T00:30:12;12.27;;;3.65;;
68229;SDS011;55048;52.220;5.160;2022-12-07T00:32:38;9.00;;;3.40;;
68229;SDS011;55048;52.220;5.160;2022-12-07T00:35:03;8.13;;;2.75;;
68229;SDS011;55048;52.220;5.160;2022-12-07T00:37:29;11.52;;;3.38;;
68229;SDS011;55048;52.220;5.160;2022-12-07T00:39:54;7.00;;;3.17;;
68229;SDS011;55048;52.220;5.160;2022-12-07T00:42:19;8.63;;;3.20;;
68229;SDS011;55048;52.220;5.160;2022-12-07T00:44:45;7.97;;;3.20;;
68229;SDS011;55048;52.220;5.160;2022-12-07T00:47:10;12.05;;;3.15;;
68229;SDS011;55048;52.220;5.160;2022-12-07T00:49:36;8.35;;;3.15;;
68229;SDS011;55048;52.220;5.160;2022-12-07T00:52:01;8.73;;;2.42;;
68229;SDS011;55048;52.220;5.160;2022-12-07T00:54:26;8.63;;;2.92;;
68229;SDS011;55048;52.220;5.160;2022-12-07T00:56:52;10.13;;;2.42;;
68229;SDS011;55048;52.220;5.160;2022-12-07T00:59:17;11.43;;;3.05;;
68229;SDS011;55048;52.220;5.160;2022-12-07T01:01:42;7.60;;;2.15;;
68229;SDS011;55048;52.220;5.160;2022-12-07T01:04:08;6.60;;;2.03;;
68229;SDS011;55048;52.220;5.160;2022-12-07T01:06:33;7.22;;;2.00;;
68229;SDS011;55048;52.220;5.160;2022-12-07T01:08:59;6.78;;;1.98;;
68229;SDS011;55048;52.220;5.160;2022-12-07T01:11:25;5.30;;;1.92;;
68229;SDS011;55048;52.220;5.160;2022-12-07T01:13:53;6.72;;;1.73;;
68229;SDS011;55048;52.220;5.160;2022-12-07T01:16:20;7.50;;;1.75;;
68229;SDS011;55048;52.220;5.160;2022-12-07T01:18:48;7.28;;;1.52;;
68229;SDS011;55048;52.220;5.160;2022-12-07T01:21:16;7.43;;;1.60;;
68229;SDS011;55048;52.220;5.160;2022-12-07T01:23:45;9.45;;;1.52;;
68229;SDS011;55048;52.220;5.160;2022-12-07T01:26:13;6.25;;;1.52;;
68229;SDS011;55048;52.220;5.160;2022-12-07T01:28:40;5.68;;;1.58;;
68229;SDS011;55048;52.220;5.160;2022-12-07T01:31:10;3.78;;;1.85;;
68229;SDS011;55048;52.220;5.160;2022-12-07T01:33:37;6.00;;;1.35;;
68229;SDS011;55048;52.220;5.160;2022-12-07T01:36:04;4.30;;;1.45;;
68229;SDS011;55048;52.220;5.160;2022-12-07T01:38:38;10.52;;;1.55;;
68229;SDS011;55048;52.220;5.160;2022-12-07T01:41:04;11.05;;;1.88;;
68229;SDS011;55048;52.220;5.160;2022-12-07T01:43:30;4.25;;;1.70;;
68229;SDS011;55048;52.220;5.160;2022-12-07T01:45:57;6.80;;;1.70;;
68229;SDS011;55048;52.220;5.160;2022-12-07T01:48:43;8.38;;;1.60;;
68229;SDS011;55048;52.220;5.160;2022-12-07T01:51:09;8.25;;;1.10;;
68229;SDS011;55048;52.220;5.160;2022-12-07T01:53:37;7.03;;;1.27;;
68229;SDS011;55048;52.220;5.160;2022-12-07T01:56:10;9.52;;;1.70;;
68229;SDS011;55048;52.220;5.160;2022-12-07T01:58:41;7.15;;;1.10;;
68229;SDS011;55048;52.220;5.160;2022-12-07T02:01:06;6.53;;;1.10;;
68229;SDS011;55048;52.220;5.160;2022-12-07T02:03:34;8.73;;;1.20;;
68229;SDS011;55048;52.220;5.160;2022-12-07T02:06:03;11.68;;;1.00;;
68229;SDS011;55048;52.220;5.160;2022-12-07T02:08:30;5.95;;;1.10;;
68229;SDS011;55048;52.220;5.160;2022-12-07T02:10:56;4.70;;;1.00;;
68229;SDS011;55048;52.220;5.160;2022-12-07T02:13:33;7.22;;;1.20;;
68229;SDS011;55048;52.220;5.160;2022-12-07T02:29:25;10.77;;;0.90;;
68229;SDS011;55048;52.220;5.160;2022-12-07T02:34:34;12.18;;;1.40;;
68229;SDS011;55048;52.220;5.160;2022-12-07T02:37:09;4.70;;;1.30;;
68229;SDS011;55048;52.220;5.160;2022-12-07T02:39:48;5.32;;;1.08;;
68229;SDS011;55048;52.220;5.160;2022-12-07T02:42:23;11.48;;;1.50;;
68229;SDS011;55048;52.220;5.160;2022-12-07T02:44:55;5.55;;;0.80;;
68229;SDS011;55048;52.220;5.160;2022-12-07T02:47:22;5.63;;;0.93;;
68229;SDS011;55048;52.220;5.160;2022-12-07T02:49:49;2.95;;;0.75;;
68229;SDS011;55048;52.220;5.160;2022-12-07T02:52:16;5.75;;;0.88;;
68229;SDS011;55048;52.220;5.160;2022-12-07T02:54:41;4.53;;;0.70;;
68229;SDS011;55048;52.220;5.160;2022-12-07T02:59:48;10.85;;;0.80;;
68229;SDS011;55048;52.220;5.160;2022-12-07T03:16:16;10.45;;;0.90;;
68229;SDS011;55048;52.220;5.160;2022-12-07T03:21:39;6.63;;;0.77;;
68229;SDS011;55048;52.220;5.160;2022-12-07T03:24:12;6.13;;;0.80;;
68229;SDS011;55048;52.220;5.160;2022-12-07T03:26:41;2.70;;;0.60;;
68229;SDS011;55048;52.220;5.160;2022-12-07T03:29:19;4.72;;;0.90;;
68229;SDS011;55048;52.220;5.160;2022-12-07T03:31:56;5.95;;;0.77;;
68229;SDS011;55048;52.220;5.160;2022-12-07T03:34:34;7.00;;;0.80;;
68229;SDS011;55048;52.220;5.160;2022-12-07T03:37:14;8.77;;;0.70;;
68229;SDS011;55048;52.220;5.160;2022-12-07T03:42:18;9.02;;;0.90;;
68229;SDS011;55048;52.220;5.160;2022-12-07T03:44:43;8.32;;;1.00;;
68229;SDS011;55048;52.220;5.160;2022-12-07T03:47:26;4.30;;;0.70;;
68229;SDS011;55048;52.220;5.160;2022-12-07T03:49:59;7.32;;;0.80;;
68229;SDS011;55048;52.220;5.160;2022-12-07T03:55:24;4.22;;;0.73;;
68229;SDS011;55048;52.220;5.160;2022-12-07T03:57:55;5.47;;;0.70;;
68229;SDS011;55048;52.220;5.160;2022-12-07T04:00:24;5.38;;;0.80;;
68229;SDS011;55048;52.220;5.160;2022-12-07T04:02:53;5.68;;;0.80;;
68229;SDS011;55048;52.220;5.160;2022-12-07T04:05:19;2.63;;;0.80;;
68229;SDS011;55048;52.220;5.160;2022-12-07T04:07:45;8.05;;;0.63;;
68229;SDS011;55048;52.220;5.160;2022-12-07T04:10:11;3.67;;;0.80;;
68229;SDS011;55048;52.220;5.160;2022-12-07T04:12:36;6.65;;;0.90;;
68229;SDS011;55048;52.220;5.160;2022-12-07T04:15:02;4.45;;;0.80;;
68229;SDS011;55048;52.220;5.160;2022-12-07T04:17:28;7.45;;;0.82;;
68229;SDS011;55048;52.220;5.160;2022-12-07T04:19:53;7.60;;;1.23;;
68229;SDS011;55048;52.220;5.160;2022-12-07T04:22:19;8.40;;;2.70;;
68229;SDS011;55048;52.220;5.160;2022-12-07T04:24:44;6.90;;;0.90;;
68229;SDS011;55048;52.220;5.160;2022-12-07T04:27:09;9.35;;;0.80;;
68229;SDS011;55048;52.220;5.160;2022-12-07T04:29:35;9.32;;;1.00;;
68229;SDS011;55048;52.220;5.160;2022-12-07T04:32:00;11.68;;;0.60;;
68229;SDS011;55048;52.220;5.160;2022-12-07T04:34:25;4.13;;;0.60;;
68229;SDS011;55048;52.220;5.160;2022-12-07T04:36:51;9.98;;;0.75;;
68229;SDS011;55048;52.220;5.160;2022-12-07T04:39:18;6.18;;;1.13;;
68229;SDS011;55048;52.220;5.160;2022-12-07T04:41:48;3.58;;;0.77;;
68229;SDS011;55048;52.220;5.160;2022-12-07T04:44:14;7.63;;;0.50;;
68229;SDS011;55048;52.220;5.160;2022-12-07T04:46:41;6.28;;;0.47;;
68229;SDS011;55048;52.220;5.160;2022-12-07T04:49:07;6.80;;;0.70;;
68229;SDS011;55048;52.220;5.160;2022-12-07T04:51:32;6.60;;;0.63;;
68229;SDS011;55048;52.220;5.160;2022-12-07T04:53:58;10.98;;;0.70;;
68229;SDS011;55048;52.220;5.160;2022-12-07T04:56:23;6.85;;;0.73;;
68229;SDS011;55048;52.220;5.160;2022-12-07T04:58:49;7.28;;;0.60;;
68229;SDS011;55048;52.220;5.160;2022-12-07T05:01:16;4.25;;;0.47;;
68229;SDS011;55048;52.220;5.160;2022-12-07T05:03:42;3.80;;;0.50;;
68229;SDS011;55048;52.220;5.160;2022-12-07T05:06:08;4.63;;;0.50;;
68229;SDS011;55048;52.220;5.160;2022-12-07T05:08:34;5.82;;;0.60;;
68229;SDS011;55048;52.220;5.160;2022-12-07T05:11:00;7.22;;;0.70;;
68229;SDS011;55048;52.220;5.160;2022-12-07T05:13:26;8.48;;;0.60;;
68229;SDS011;55048;52.220;5.160;2022-12-07T05:15:51;7.43;;;0.60;;
68229;SDS011;55048;52.220;5.160;2022-12-07T05:18:17;6.25;;;0.60;;
68229;SDS011;55048;52.220;5.160;2022-12-07T05:20:42;3.55;;;0.60;;
68229;SDS011;55048;52.220;5.160;2022-12-07T05:23:09;7.63;;;0.60;;
68229;SDS011;55048;52.220;5.160;2022-12-07T05:25:34;7.45;;;0.70;;
68229;SDS011;55048;52.220;5.160;2022-12-07T05:27:59;7.40;;;0.70;;
68229;SDS011;55048;52.220;5.160;2022-12-07T05:30:25;5.43;;;0.70;;
68229;SDS011;55048;52.220;5.160;2022-12-07T05:32:51;12.13;;;0.90;;
68229;SDS011;55048;52.220;5.160;2022-12-07T05:35:17;4.85;;;1.00;;
68229;SDS011;55048;52.220;5.160;2022-12-07T05:37:43;10.95;;;0.90;;
68229;SDS011;55048;52.220;5.160;2022-12-07T05:40:09;4.30;;;0.70;;
68229;SDS011;55048;52.220;5.160;2022-12-07T05:42:35;6.85;;;0.80;;
68229;SDS011;55048;52.220;5.160;2022-12-07T05:45:01;2.90;;;0.65;;
68229;SDS011;55048;52.220;5.160;2022-12-07T05:47:26;9.65;;;0.70;;
68229;SDS011;55048;52.220;5.160;2022-12-07T05:49:51;4.18;;;0.75;;
68229;SDS011;55048;52.220;5.160;2022-12-07T05:52:17;8.32;;;0.82;;
68229;SDS011;55048;52.220;5.160;2022-12-07T05:54:42;7.28;;;0.80;;
68229;SDS011;55048;52.220;5.160;2022-12-07T05:57:08;2.92;;;0.70;;
68229;SDS011;55048;52.220;5.160;2022-12-07T05:59:33;6.30;;;0.88;;
68229;SDS011;55048;52.220;5.160;2022-12-07T06:04:25;9.50;;;0.82;;
68229;SDS011;55048;52.220;5.160;2022-12-07T06:06:52;7.55;;;1.05;;
68229;SDS011;55048;52.220;5.160;2022-12-07T06:09:19;5.15;;;2.03;;
68229;SDS011;55048;52.220;5.160;2022-12-07T06:11:45;7.13;;;2.00;;
68229;SDS011;55048;52.220;5.160;2022-12-07T06:14:29;8.45;;;2.10;;
68229;SDS011;55048;52.220;5.160;2022-12-07T06:16:54;5.32;;;1.65;;
68229;SDS011;55048;52.220;5.160;2022-12-07T06:19:20;12.60;;;1.80;;
68229;SDS011;55048;52.220;5.160;2022-12-07T06:21:45;10.75;;;2.08;;
68229;SDS011;55048;52.220;5.160;2022-12-07T06:24:11;6.85;;;1.90;;
68229;SDS011;55048;52.220;5.160;2022-12-07T06:26:37;9.55;;;1.70;;
68229;SDS011;55048;52.220;5.160;2022-12-07T06:29:03;7.55;;;1.70;;
68229;SDS011;55048;52.220;5.160;2022-12-07T06:31:29;6.25;;;1.58;;
68229;SDS011;55048;52.220;5.160;2022-12-07T06:34:01;16.92;;;1.75;;
68229;SDS011;55048;52.220;5.160;2022-12-07T06:36:28;6.40;;;1.30;;
68229;SDS011;55048;52.220;5.160;2022-12-07T06:38:54;14.93;;;2.30;;
68229;SDS011;55048;52.220;5.160;2022-12-07T06:41:19;21.42;;;4.10;;
68229;SDS011;55048;52.220;5.160;2022-12-07T06:43:45;18.73;;;3.33;;
68229;SDS011;55048;52.220;5.160;2022-12-07T06:46:10;15.85;;;3.38;;
68229;SDS011;55048;52.220;5.160;2022-12-07T06:48:35;20.92;;;3.72;;
68229;SDS011;55048;52.220;5.160;2022-12-07T06:51:01;39.08;;;12.82;;
68229;SDS011;55048;52.220;5.160;2022-12-07T06:53:26;26.13;;;6.97;;
68229;SDS011;55048;52.220;5.160;2022-12-07T06:55:52;18.70;;;5.07;;
68229;SDS011;55048;52.220;5.160;2022-12-07T06:58:17;15.13;;;3.17;;
68229;SDS011;55048;52.220;5.160;2022-12-07T07:00:43;16.65;;;2.35;;
68229;SDS011;55048;52.220;5.160;2022-12-07T07:03:09;13.52;;;2.20;;
68229;SDS011;55048;52.220;5.160;2022-12-07T07:05:34;10.23;;;2.08;;
68229;SDS011;55048;52.220;5.160;2022-12-07T07:08:00;8.05;;;1.73;;
68229;SDS011;55048;52.220;5.160;2022-12-07T07:10:25;11.82;;;1.67;;
68229;SDS011;55048;52.220;5.160;2022-12-07T07:12:51;13.70;;;2.67;;
68229;SDS011;55048;52.220;5.160;2022-12-07T07:15:16;16.10;;;3.47;;
68229;SDS011;55048;52.220;5.160;2022-12-07T07:17:42;19.15;;;4.00;;
68229;SDS011;55048;52.220;5.160;2022-12-07T07:20:08;14.88;;;4.53;;
68229;SDS011;55048;52.220;5.160;2022-12-07T07:22:33;13.25;;;4.30;;
68229;SDS011;55048;52.220;5.160;2022-12-07T07:24:59;27.05;;;6.38;;
68229;SDS011;55048;52.220;5.160;2022-12-07T07:27:24;18.63;;;4.93;;
68229;SDS011;55048;52.220;5.160;2022-12-07T07:29:50;18.63;;;7.07;;
68229;SDS011;55048;52.220;5.160;2022-12-07T07:32:15;14.13;;;6.10;;
68229;SDS011;55048;52.220;5.160;2022-12-07T07:34:40;13.82;;;6.25;;
68229;SDS011;55048;52.220;5.160;2022-12-07T07:37:06;19.13;;;6.75;;
68229;SDS011;55048;52.220;5.160;2022-12-07T07:39:31;24.40;;;7.35;;
68229;SDS011;55048;52.220;5.160;2022-12-07T07:41:56;20.98;;;8.13;;
68229;SDS011;55048;52.220;5.160;2022-12-07T07:44:25;13.82;;;5.85;;
68229;SDS011;55048;52.220;5.160;2022-12-07T07:46:50;19.08;;;8.52;;
68229;SDS011;55048;52.220;5.160;2022-12-07T07:49:16;18.80;;;8.18;;
68229;SDS011;55048;52.220;5.160;2022-12-07T07:51:41;21.50;;;7.80;;
68229;SDS011;55048;52.220;5.160;2022-12-07T07:54:06;20.77;;;7.03;;
68229;SDS011;55048;52.220;5.160;2022-12-07T07:56:32;22.88;;;5.78;;
68229;SDS011;55048;52.220;5.160;2022-12-07T07:58:57;11.77;;;3.28;;
68229;SDS011;55048;52.220;5.160;2022-12-07T08:01:22;21.15;;;2.97;;
68229;SDS011;55048;52.220;5.160;2022-12-07T08:03:48;5.63;;;1.30;;
68229;SDS011;55048;52.220;5.160;2022-12-07T08:06:13;10.35;;;1.60;;
68229;SDS011;55048;52.220;5.160;2022-12-07T08:08:39;11.02;;;1.13;;
68229;SDS011;55048;52.220;5.160;2022-12-07T08:11:05;13.80;;;1.17;;
68229;SDS011;55048;52.220;5.160;2022-12-07T08:13:30;13.63;;;1.77;;
68229;SDS011;55048;52.220;5.160;2022-12-07T08:15:56;7.07;;;1.25;;
68229;SDS011;55048;52.220;5.160;2022-12-07T08:18:21;8.20;;;1.10;;
68229;SDS011;55048;52.220;5.160;2022-12-07T08:20:47;8.30;;;1.17;;
68229;SDS011;55048;52.220;5.160;2022-12-07T08:23:12;10.98;;;1.23;;
68229;SDS011;55048;52.220;5.160;2022-12-07T08:25:37;9.02;;;1.17;;
68229;SDS011;55048;52.220;5.160;2022-12-07T08:28:03;14.75;;;1.63;;
68229;SDS011;55048;52.220;5.160;2022-12-07T08:30:30;10.90;;;1.25;;
68229;SDS011;55048;52.220;5.160;2022-12-07T08:32:56;8.52;;;1.15;;
68229;SDS011;55048;52.220;5.160;2022-12-07T08:35:22;1.98;;;0.70;;
68229;SDS011;55048;52.220;5.160;2022-12-07T08:37:47;10.98;;;1.10;;
68229;SDS011;55048;52.220;5.160;2022-12-07T08:40:13;9.27;;;0.90;;
68229;SDS011;55048;52.220;5.160;2022-12-07T08:42:41;5.28;;;1.00;;
68229;SDS011;55048;52.220;5.160;2022-12-07T08:45:10;9.38;;;1.00;;
68229;SDS011;55048;52.220;5.160;2022-12-07T08:47:38;9.45;;;1.00;;
68229;SDS011;55048;52.220;5.160;2022-12-07T08:50:07;11.23;;;0.80;;
68229;SDS011;55048;52.220;5.160;2022-12-07T08:52:34;7.82;;;1.10;;
68229;SDS011;55048;52.220;5.160;2022-12-07T08:55:01;9.38;;;1.60;;
68229;SDS011;55048;52.220;5.160;2022-12-07T08:57:29;6.45;;;0.80;;
68229;SDS011;55048;52.220;5.160;2022-12-07T08:59:55;8.25;;;0.90;;
68229;SDS011;55048;52.220;5.160;2022-12-07T09:02:20;7.85;;;1.13;;
68229;SDS011;55048;52.220;5.160;2022-12-07T09:04:46;15.63;;;1.75;;
68229;SDS011;55048;52.220;5.160;2022-12-07T09:07:11;6.28;;;0.85;;
68229;SDS011;55048;52.220;5.160;2022-12-07T09:09:37;4.40;;;1.10;;
68229;SDS011;55048;52.220;5.160;2022-12-07T09:12:02;13.68;;;2.60;;
68229;SDS011;55048;52.220;5.160;2022-12-07T09:14:28;17.80;;;1.90;;
68229;SDS011;55048;52.220;5.160;2022-12-07T09:16:53;4.55;;;2.05;;
68229;SDS011;55048;52.220;5.160;2022-12-07T09:19:19;7.57;;;1.30;;
68229;SDS011;55048;52.220;5.160;2022-12-07T09:21:44;9.43;;;1.10;;
68229;SDS011;55048;52.220;5.160;2022-12-07T09:24:11;7.20;;;1.30;;
68229;SDS011;55048;52.220;5.160;2022-12-07T09:26:37;7.80;;;1.08;;
68229;SDS011;55048;52.220;5.160;2022-12-07T09:29:04;7.47;;;1.42;;
68229;SDS011;55048;52.220;5.160;2022-12-07T09:31:29;4.97;;;1.30;;
68229;SDS011;55048;52.220;5.160;2022-12-07T09:33:59;16.20;;;3.58;;
68229;SDS011;55048;52.220;5.160;2022-12-07T09:36:25;10.25;;;1.30;;
68229;SDS011;55048;52.220;5.160;2022-12-07T09:38:51;5.35;;;1.40;;
68229;SDS011;55048;52.220;5.160;2022-12-07T09:41:18;7.97;;;1.10;;
68229;SDS011;55048;52.220;5.160;2022-12-07T09:43:45;8.02;;;1.40;;
68229;SDS011;55048;52.220;5.160;2022-12-07T09:46:13;6.20;;;1.33;;
68229;SDS011;55048;52.220;5.160;2022-12-07T09:48:42;8.38;;;1.40;;
68229;SDS011;55048;52.220;5.160;2022-12-07T09:51:19;8.43;;;1.30;;
68229;SDS011;55048;52.220;5.160;2022-12-07T09:53:47;6.40;;;1.13;;
68229;SDS011;55048;52.220;5.160;2022-12-07T09:56:13;4.32;;;0.93;;
68229;SDS011;55048;52.220;5.160;2022-12-07T09:58:40;10.13;;;0.88;;
68229;SDS011;55048;52.220;5.160;2022-12-07T10:03:33;12.32;;;1.10;;
68229;SDS011;55048;52.220;5.160;2022-12-07T10:06:00;7.20;;;1.00;;
68229;SDS011;55048;52.220;5.160;2022-12-07T10:08:26;10.85;;;1.70;;
68229;SDS011;55048;52.220;5.160;2022-12-07T10:10:52;11.10;;;2.03;;
68229;SDS011;55048;52.220;5.160;2022-12-07T10:13:21;8.27;;;1.50;;
68229;SDS011;55048;52.220;5.160;2022-12-07T10:15:58;7.53;;;1.20;;
68229;SDS011;55048;52.220;5.160;2022-12-07T10:23:40;3.88;;;0.80;;
68229;SDS011;55048;52.220;5.160;2022-12-07T10:32:02;10.27;;;0.93;;
68229;SDS011;55048;52.220;5.160;2022-12-07T10:34:48;5.72;;;0.95;;
68229;SDS011;55048;52.220;5.160;2022-12-07T10:39:49;6.35;;;0.90;;
68229;SDS011;55048;52.220;5.160;2022-12-07T10:44:47;4.63;;;0.80;;
68229;SDS011;55048;52.220;5.160;2022-12-07T10:47:25;6.15;;;0.85;;
68229;SDS011;55048;52.220;5.160;2022-12-07T10:50:14;2.70;;;1.02;;
68229;SDS011;55048;52.220;5.160;2022-12-07T11:03:42;8.85;;;1.10;;
68229;SDS011;55048;52.220;5.160;2022-12-07T11:06:23;8.57;;;0.80;;
68229;SDS011;55048;52.220;5.160;2022-12-07T11:09:06;8.30;;;0.88;;
68229;SDS011;55048;52.220;5.160;2022-12-07T11:18:11;5.00;;;0.70;;
68229;SDS011;55048;52.220;5.160;2022-12-07T11:20:29;7.18;;;0.80;;
68229;SDS011;55048;52.220;5.160;2022-12-07T11:36:56;4.47;;;0.70;;
68229;SDS011;55048;52.220;5.160;2022-12-07T11:41:57;4.00;;;0.52;;
68229;SDS011;55048;52.220;5.160;2022-12-07T11:44:32;6.20;;;0.70;;
68229;SDS011;55048;52.220;5.160;2022-12-07T11:49:55;9.23;;;0.88;;
68229;SDS011;55048;52.220;5.160;2022-12-07T11:52:32;8.95;;;0.70;;
68229;SDS011;55048;52.220;5.160;2022-12-07T11:55:16;6.00;;;0.70;;
68229;SDS011;55048;52.220;5.160;2022-12-07T11:57:51;4.10;;;0.80;;
68229;SDS011;55048;52.220;5.160;2022-12-07T12:00:22;4.85;;;0.77;;
68229;SDS011;55048;52.220;5.160;2022-12-07T12:02:56;7.35;;;0.80;;
68229;SDS011;55048;52.220;5.160;2022-12-07T12:05:26;5.17;;;0.90;;
68229;SDS011;55048;52.220;5.160;2022-12-07T12:18:50;3.88;;;0.68;;
68229;SDS011;55048;52.220;5.160;2022-12-07T12:21:22;4.10;;;0.70;;
68229;SDS011;55048;52.220;5.160;2022-12-07T12:23:57;7.38;;;0.90;;
68229;SDS011;55048;52.220;5.160;2022-12-07T12:26:29;4.90;;;0.75;;
68229;SDS011;55048;52.220;5.160;2022-12-07T12:33:53;1.27;;;0.30;;
68229;SDS011;55048;52.220;5.160;2022-12-07T12:39:09;3.40;;;0.32;;
68229;SDS011;55048;52.220;5.160;2022-12-07T12:46:55;1.35;;;0.28;;
68229;SDS011;55048;52.220;5.160;2022-12-07T12:54:35;6.15;;;0.77;;
68229;SDS011;55048;52.220;5.160;2022-12-07T12:57:13;5.80;;;0.60;;
68229;SDS011;55048;52.220;5.160;2022-12-07T13:02:30;3.70;;;0.63;;
68229;SDS011;55048;52.220;5.160;2022-12-07T13:05:00;4.85;;;0.63;;
68229;SDS011;55048;52.220;5.160;2022-12-07T13:12:58;4.95;;;0.70;;
68229;SDS011;55048;52.220;5.160;2022-12-07T13:15:35;4.60;;;0.57;;
68229;SDS011;55048;52.220;5.160;2022-12-07T13:18:01;6.10;;;0.60;;
68229;SDS011;55048;52.220;5.160;2022-12-07T13:23:09;3.50;;;0.40;;
68229;SDS011;55048;52.220;5.160;2022-12-07T13:25:44;6.95;;;0.60;;
68229;SDS011;55048;52.220;5.160;2022-12-07T13:28:15;7.45;;;0.75;;
68229;SDS011;55048;52.220;5.160;2022-12-07T13:30:54;5.65;;;0.50;;
68229;SDS011;55048;52.220;5.160;2022-12-07T13:33:28;7.13;;;1.63;;
68229;SDS011;55048;52.220;5.160;2022-12-07T13:35:55;10.90;;;1.25;;
68229;SDS011;55048;52.220;5.160;2022-12-07T13:38:34;5.93;;;0.50;;
68229;SDS011;55048;52.220;5.160;2022-12-07T13:41:13;4.07;;;0.50;;
68229;SDS011;55048;52.220;5.160;2022-12-07T13:43:44;9.07;;;0.60;;
68229;SDS011;55048;52.220;5.160;2022-12-07T13:46:12;5.78;;;0.50;;
68229;SDS011;55048;52.220;5.160;2022-12-07T13:48:46;4.55;;;0.50;;
68229;SDS011;55048;52.220;5.160;2022-12-07T13:51:26;5.18;;;0.38;;
68229;SDS011;55048;52.220;5.160;2022-12-07T13:53:54;6.63;;;0.93;;
68229;SDS011;55048;52.220;5.160;2022-12-07T13:56:26;5.53;;;0.50;;
68229;SDS011;55048;52.220;5.160;2022-12-07T13:58:56;3.45;;;0.55;;
68229;SDS011;55048;52.220;5.160;2022-12-07T14:01:22;3.17;;;0.50;;
68229;SDS011;55048;52.220;5.160;2022-12-07T14:03:48;8.43;;;1.63;;
68229;SDS011;55048;52.220;5.160;2022-12-07T14:06:19;2.45;;;0.85;;
68229;SDS011;55048;52.220;5.160;2022-12-07T14:08:50;6.28;;;0.70;;
68229;SDS011;55048;52.220;5.160;2022-12-07T14:13:56;5.10;;;0.50;;
68229;SDS011;55048;52.220;5.160;2022-12-07T14:16:31;2.10;;;0.82;;
68229;SDS011;55048;52.220;5.160;2022-12-07T14:19:00;4.30;;;1.23;;
68229;SDS011;55048;52.220;5.160;2022-12-07T14:21:31;5.25;;;0.80;;
68229;SDS011;55048;52.220;5.160;2022-12-07T14:24:02;2.22;;;0.40;;
68229;SDS011;55048;52.220;5.160;2022-12-07T14:26:29;3.78;;;0.80;;
68229;SDS011;55048;52.220;5.160;2022-12-07T14:29:17;7.50;;;1.45;;
68229;SDS011;55048;52.220;5.160;2022-12-07T14:31:53;3.65;;;0.50;;
68229;SDS011;55048;52.220;5.160;2022-12-07T14:34:20;2.08;;;0.35;;
68229;SDS011;55048;52.220;5.160;2022-12-07T14:36:46;1.10;;;0.30;;
68229;SDS011;55048;52.220;5.160;2022-12-07T14:39:11;5.55;;;0.40;;
68229;SDS011;55048;52.220;5.160;2022-12-07T14:41:37;1.65;;;0.47;;
68229;SDS011;55048;52.220;5.160;2022-12-07T14:44:23;3.08;;;0.57;;
68229;SDS011;55048;52.220;5.160;2022-12-07T14:46:49;3.20;;;0.47;;
68229;SDS011;55048;52.220;5.160;2022-12-07T14:49:15;6.40;;;0.65;;
68229;SDS011;55048;52.220;5.160;2022-12-07T14:51:40;2.38;;;0.40;;
68229;SDS011;55048;52.220;5.160;2022-12-07T14:54:11;4.13;;;0.50;;
68229;SDS011;55048;52.220;5.160;2022-12-07T14:56:40;4.03;;;0.50;;
68229;SDS011;55048;52.220;5.160;2022-12-07T14:59:06;3.85;;;0.47;;
68229;SDS011;55048;52.220;5.160;2022-12-07T15:01:32;2.92;;;0.35;;
68229;SDS011;55048;52.220;5.160;2022-12-07T15:03:57;5.35;;;0.40;;
68229;SDS011;55048;52.220;5.160;2022-12-07T15:06:23;5.28;;;0.65;;
68229;SDS011;55048;52.220;5.160;2022-12-07T15:08:48;1.05;;;0.43;;
68229;SDS011;55048;52.220;5.160;2022-12-07T15:11:14;3.88;;;0.90;;
68229;SDS011;55048;52.220;5.160;2022-12-07T15:13:40;5.00;;;1.27;;
68229;SDS011;55048;52.220;5.160;2022-12-07T15:16:24;4.78;;;1.02;;
68229;SDS011;55048;52.220;5.160;2022-12-07T15:18:50;1.63;;;0.85;;
68229;SDS011;55048;52.220;5.160;2022-12-07T15:21:16;4.75;;;1.00;;
68229;SDS011;55048;52.220;5.160;2022-12-07T15:23:42;5.53;;;0.80;;
68229;SDS011;55048;52.220;5.160;2022-12-07T15:26:09;3.05;;;0.90;;
68229;SDS011;55048;52.220;5.160;2022-12-07T15:28:35;6.75;;;1.00;;
68229;SDS011;55048;52.220;5.160;2022-12-07T15:31:00;5.85;;;1.10;;
68229;SDS011;55048;52.220;5.160;2022-12-07T15:33:26;4.15;;;0.80;;
68229;SDS011;55048;52.220;5.160;2022-12-07T15:35:51;4.53;;;0.77;;
68229;SDS011;55048;52.220;5.160;2022-12-07T15:38:16;6.35;;;0.80;;
68229;SDS011;55048;52.220;5.160;2022-12-07T15:40:42;4.35;;;0.85;;
68229;SDS011;55048;52.220;5.160;2022-12-07T15:43:08;8.18;;;0.88;;
68229;SDS011;55048;52.220;5.160;2022-12-07T15:45:54;4.32;;;0.60;;
68229;SDS011;55048;52.220;5.160;2022-12-07T15:48:19;6.35;;;0.50;;
68229;SDS011;55048;52.220;5.160;2022-12-07T15:50:45;4.32;;;0.60;;
68229;SDS011;55048;52.220;5.160;2022-12-07T15:53:10;3.85;;;0.90;;
68229;SDS011;55048;52.220;5.160;2022-12-07T15:55:38;5.03;;;0.70;;
68229;SDS011;55048;52.220;5.160;2022-12-07T15:58:04;3.85;;;0.98;;
68229;SDS011;55048;52.220;5.160;2022-12-07T16:00:30;5.28;;;0.82;;
68229;SDS011;55048;52.220;5.160;2022-12-07T16:02:55;5.72;;;0.93;;
68229;SDS011;55048;52.220;5.160;2022-12-07T16:05:21;2.95;;;0.75;;
68229;SDS011;55048;52.220;5.160;2022-12-07T16:07:46;12.00;;;1.35;;
68229;SDS011;55048;52.220;5.160;2022-12-07T16:10:12;9.60;;;1.30;;
68229;SDS011;55048;52.220;5.160;2022-12-07T16:12:38;5.80;;;1.58;;
68229;SDS011;55048;52.220;5.160;2022-12-07T16:15:03;7.00;;;1.20;;
68229;SDS011;55048;52.220;5.160;2022-12-07T16:17:29;3.03;;;0.88;;
68229;SDS011;55048;52.220;5.160;2022-12-07T16:19:55;6.07;;;1.05;;
68229;SDS011;55048;52.220;5.160;2022-12-07T16:22:20;4.05;;;1.05;;
68229;SDS011;55048;52.220;5.160;2022-12-07T16:24:46;7.22;;;1.60;;
68229;SDS011;55048;52.220;5.160;2022-12-07T16:27:11;7.03;;;1.42;;
68229;SDS011;55048;52.220;5.160;2022-12-07T16:29:36;8.90;;;1.88;;
68229;SDS011;55048;52.220;5.160;2022-12-07T16:32:02;8.93;;;1.42;;
68229;SDS011;55048;52.220;5.160;2022-12-07T16:34:27;8.40;;;1.23;;
68229;SDS011;55048;52.220;5.160;2022-12-07T16:36:53;3.90;;;1.20;;
68229;SDS011;55048;52.220;5.160;2022-12-07T16:39:18;4.65;;;1.40;;
68229;SDS011;55048;52.220;5.160;2022-12-07T16:41:43;5.40;;;1.45;;
68229;SDS011;55048;52.220;5.160;2022-12-07T16:44:10;6.90;;;1.60;;
68229;SDS011;55048;52.220;5.160;2022-12-07T16:46:37;12.55;;;1.63;;
68229;SDS011;55048;52.220;5.160;2022-12-07T16:49:03;6.35;;;1.83;;
68229;SDS011;55048;52.220;5.160;2022-12-07T16:51:29;8.25;;;2.15;;
68229;SDS011;55048;52.220;5.160;2022-12-07T16:53:55;13.65;;;4.70;;
68229;SDS011;55048;52.220;5.160;2022-12-07T16:56:21;9.20;;;4.20;;
68229;SDS011;55048;52.220;5.160;2022-12-07T16:58:46;12.45;;;4.72;;
68229;SDS011;55048;52.220;5.160;2022-12-07T17:01:17;8.90;;;4.03;;
68229;SDS011;55048;52.220;5.160;2022-12-07T17:03:47;7.20;;;3.40;;
68229;SDS011;55048;52.220;5.160;2022-12-07T17:06:14;7.88;;;4.22;;
68229;SDS011;55048;52.220;5.160;2022-12-07T17:08:51;7.68;;;3.15;;
68229;SDS011;55048;52.220;5.160;2022-12-07T17:11:21;10.32;;;3.13;;